Time;durP1;ratioP1;P1;durP2;ratioP2;P2;SDS_P1;SDS_P2;PMS_P1;PMS_P2;Temp;Humidity;BMP_temperature;BMP_pressure;BME280_temperature;BME280_humidity;BME280_pressure;Samples;Min_cycle;Max_cycle;Signal;HPM_P1;HPM_P2
2023/08/13 00:00:40;;;;;;;4.03;2.42;;;20.60;99.90;;;;;;4970292;28;20035;-77
2023/08/13 00:03:06;;;;;;;4.85;2.45;;;20.60;99.90;;;;;;4970649;28;20034;-77
2023/08/13 00:05:32;;;;;;;4.70;2.83;;;20.50;99.90;;;;;;4977500;28;20295;-77
2023/08/13 00:07:57;;;;;;;2.10;1.90;;;20.50;99.90;;;;;;4963080;28;20378;-77
2023/08/13 00:10:23;;;;;;;2.45;2.25;;;20.50;99.90;;;;;;4995244;28;20025;-77
2023/08/13 00:12:49;;;;;;;5.13;1.95;;;20.50;99.90;;;;;;4980228;28;20271;-77
2023/08/13 00:15:14;;;;;;;6.65;2.38;;;20.60;99.90;;;;;;4980066;28;20026;-77
2023/08/13 00:17:40;;;;;;;4.68;2.55;;;20.50;99.90;;;;;;4997933;28;20019;-77
2023/08/13 00:20:07;;;;;;;9.45;3.13;;;20.60;99.90;;;;;;4999967;28;20030;-77
2023/08/13 00:22:32;;;;;;;4.43;2.10;;;20.50;99.90;;;;;;4997555;28;20084;-77
2023/08/13 00:24:58;;;;;;;6.88;2.28;;;20.50;99.90;;;;;;4978246;28;20058;-77
2023/08/13 00:27:24;;;;;;;2.97;2.10;;;20.40;99.90;;;;;;4995104;28;20033;-77
2023/08/13 00:29:49;;;;;;;5.47;3.08;;;20.30;99.90;;;;;;4993644;28;20042;-76
2023/08/13 00:32:15;;;;;;;2.25;1.98;;;20.20;99.90;;;;;;4996056;28;20069;-76
2023/08/13 00:34:41;;;;;;;5.40;3.15;;;20.10;99.90;;;;;;4991959;28;20093;-77
2023/08/13 00:37:06;;;;;;;5.93;2.60;;;20.00;99.90;;;;;;4998683;28;20014;-77
2023/08/13 00:39:32;;;;;;;5.57;3.33;;;20.00;99.90;;;;;;4982038;28;20030;-77
2023/08/13 00:41:58;;;;;;;4.10;2.78;;;20.00;99.90;;;;;;4978117;28;20057;-76
2023/08/13 00:44:24;;;;;;;6.43;1.95;;;20.00;99.90;;;;;;4995145;28;20034;-77
2023/08/13 00:46:50;;;;;;;3.28;2.63;;;20.00;99.90;;;;;;4981960;28;20038;-77
2023/08/13 00:49:16;;;;;;;4.25;2.35;;;19.90;99.90;;;;;;4995594;28;20037;-76
2023/08/13 00:51:42;;;;;;;4.82;2.67;;;19.90;99.90;;;;;;4994510;28;20094;-78
2023/08/13 00:54:09;;;;;;;2.75;2.53;;;19.70;99.90;;;;;;4999443;28;20045;-78
2023/08/13 00:56:40;;;;;;;3.78;2.40;;;19.60;99.90;;;;;;4999350;28;20090;-77
2023/08/13 00:59:06;;;;;;;9.13;3.25;;;19.60;99.90;;;;;;4981837;28;20129;-77
2023/08/13 01:01:32;;;;;;;2.92;2.47;;;19.70;99.90;;;;;;4999254;28;20080;-77
2023/08/13 01:03:58;;;;;;;4.85;2.95;;;19.60;99.90;;;;;;4987628;28;20155;-76
2023/08/13 01:06:33;;;;;;;2.58;2.22;;;19.60;99.90;;;;;;4979738;28;20121;-77
2023/08/13 01:09:15;;;;;;;5.93;2.90;;;19.50;99.90;;;;;;4979669;28;20109;-77
2023/08/13 01:11:59;;;;;;;3.67;2.88;;;19.50;99.90;;;;;;4978005;28;20034;-77
2023/08/13 01:14:46;;;;;;;3.72;2.30;;;19.40;99.90;;;;;;4962472;28;20069;-77
2023/08/13 01:17:13;;;;;;;4.70;2.45;;;19.30;99.90;;;;;;4973241;28;20078;-77
2023/08/13 01:19:38;;;;;;;2.67;2.08;;;19.30;99.90;;;;;;4953055;28;20435;-78
2023/08/13 01:22:05;;;;;;;5.93;2.75;;;19.20;99.90;;;;;;4970372;28;20043;-77
2023/08/13 01:24:30;;;;;;;4.13;2.92;;;19.30;99.90;;;;;;4969636;28;20567;-78
2023/08/13 01:27:27;;;;;;;6.10;3.30;;;19.20;99.90;;;;;;4972247;28;20073;-77
2023/08/13 01:30:17;;;;;;;3.58;2.38;;;19.20;99.90;;;;;;4971185;28;20439;-77
2023/08/13 01:33:08;;;;;;;5.53;2.28;;;19.10;99.90;;;;;;4992610;28;20412;-78
2023/08/13 01:35:35;;;;;;;6.63;2.67;;;19.00;99.90;;;;;;4981594;28;20034;-78
2023/08/13 01:38:03;;;;;;;7.05;2.75;;;19.00;99.90;;;;;;4984993;28;20026;-78
2023/08/13 01:40:29;;;;;;;2.95;2.60;;;19.00;99.90;;;;;;5003764;28;20022;-77
2023/08/13 01:42:55;;;;;;;5.22;2.92;;;19.00;99.90;;;;;;5000180;28;20095;-77
2023/08/13 01:45:21;;;;;;;6.93;2.42;;;19.00;99.90;;;;;;5002128;28;20030;-77
2023/08/13 01:47:48;;;;;;;7.50;2.60;;;18.90;99.90;;;;;;4999675;28;20118;-77
2023/08/13 01:50:14;;;;;;;5.25;2.35;;;18.90;99.90;;;;;;5002301;28;20069;-77
2023/08/13 01:52:39;;;;;;;3.80;2.45;;;18.80;99.90;;;;;;5000585;28;20022;-77
2023/08/13 01:55:06;;;;;;;8.02;2.95;;;18.70;99.90;;;;;;5002052;28;20386;-78
2023/08/13 01:57:31;;;;;;;2.20;2.00;;;18.80;99.90;;;;;;4993535;28;20062;-77
2023/08/13 01:59:57;;;;;;;2.50;2.30;;;18.80;99.90;;;;;;4978894;28;20101;-78
2023/08/13 02:02:24;;;;;;;5.05;2.85;;;18.70;99.90;;;;;;4962884;28;20061;-78
2023/08/13 02:04:50;;;;;;;2.83;2.33;;;18.70;99.90;;;;;;4981982;28;20026;-77
2023/08/13 02:07:15;;;;;;;6.03;2.47;;;18.60;99.90;;;;;;4982750;28;20213;-78
2023/08/13 02:09:41;;;;;;;8.55;3.42;;;18.60;99.90;;;;;;4974817;28;20038;-77
2023/08/13 02:12:07;;;;;;;7.22;2.78;;;18.50;99.90;;;;;;4979235;28;20081;-77
2023/08/13 02:14:32;;;;;;;2.88;2.47;;;18.50;99.90;;;;;;4975937;28;20279;-77
2023/08/13 02:16:59;;;;;;;4.75;2.97;;;18.40;99.90;;;;;;4973214;28;20093;-78
2023/08/13 02:19:25;;;;;;;4.65;2.47;;;18.40;99.90;;;;;;4980442;28;20030;-77
2023/08/13 02:21:51;;;;;;;4.22;3.30;;;18.40;99.90;;;;;;4982006;28;20062;-77
2023/08/13 02:24:17;;;;;;;4.78;2.85;;;18.30;99.90;;;;;;4981046;28;20026;-78
2023/08/13 02:26:42;;;;;;;4.20;2.30;;;18.30;99.90;;;;;;4984926;28;20029;-77
2023/08/13 02:29:08;;;;;;;5.68;3.63;;;18.30;99.90;;;;;;4980140;28;20093;-78
2023/08/13 02:31:34;;;;;;;3.88;2.42;;;18.30;99.90;;;;;;4998180;28;20023;-78
2023/08/13 02:33:59;;;;;;;7.43;2.95;;;18.30;99.90;;;;;;4997805;28;20172;-77
2023/08/13 02:36:25;;;;;;;3.03;2.72;;;18.20;99.90;;;;;;4993672;28;20026;-77
2023/08/13 02:38:51;;;;;;;3.60;2.95;;;18.20;99.90;;;;;;4982479;28;20330;-78
2023/08/13 02:41:16;;;;;;;5.82;2.67;;;18.30;99.90;;;;;;5001672;28;20090;-78
2023/08/13 02:43:53;;;;;;;4.00;2.85;;;18.30;99.90;;;;;;5000618;28;20031;-78
2023/08/13 02:46:23;;;;;;;5.78;2.40;;;18.30;99.90;;;;;;4973584;28;20205;-77
2023/08/13 02:48:53;;;;;;;3.17;2.67;;;18.30;99.90;;;;;;4993459;28;20283;-77
2023/08/13 02:51:20;;;;;;;7.25;2.53;;;18.20;99.90;;;;;;5001085;28;20037;-78
2023/08/13 02:53:45;;;;;;;3.97;2.47;;;18.20;99.90;;;;;;5001094;28;20014;-77
2023/08/13 02:56:11;;;;;;;5.35;3.72;;;18.20;99.90;;;;;;4983115;28;20365;-76
2023/08/13 02:58:37;;;;;;;2.60;2.40;;;18.20;99.90;;;;;;4984025;28;20085;-77
2023/08/13 03:01:03;;;;;;;11.90;3.55;;;18.20;99.90;;;;;;5000544;28;20097;-77
2023/08/13 03:03:29;;;;;;;3.35;2.53;;;18.20;99.90;;;;;;4995346;28;20027;-78
2023/08/13 03:05:54;;;;;;;7.40;2.97;;;18.30;99.90;;;;;;4978116;28;20029;-77
2023/08/13 03:08:20;;;;;;;3.22;2.67;;;18.30;99.90;;;;;;4979914;28;20073;-77
2023/08/13 03:10:46;;;;;;;2.83;2.47;;;18.30;99.90;;;;;;4981557;28;20027;-78
2023/08/13 03:13:11;;;;;;;5.50;2.63;;;18.20;99.90;;;;;;4978108;28;20053;-77
2023/08/13 03:15:37;;;;;;;3.33;2.60;;;18.10;99.90;;;;;;4998647;28;20073;-77
2023/08/13 03:18:03;;;;;;;4.25;2.65;;;18.10;99.90;;;;;;4996207;28;20082;-77
2023/08/13 03:20:28;;;;;;;7.40;3.35;;;18.10;99.90;;;;;;4994221;28;20058;-77
2023/08/13 03:22:54;;;;;;;4.97;2.67;;;18.10;99.90;;;;;;4990705;28;20026;-77
2023/08/13 03:25:20;;;;;;;6.10;2.55;;;18.00;99.90;;;;;;4994595;28;20033;-77
2023/08/13 03:27:47;;;;;;;6.85;3.33;;;18.00;99.90;;;;;;4990752;28;20552;-77
2023/08/13 03:30:13;;;;;;;4.57;2.85;;;18.00;99.90;;;;;;4992463;28;20468;-77
2023/08/13 03:32:39;;;;;;;3.20;2.67;;;18.10;99.90;;;;;;4990859;28;20058;-77
2023/08/13 03:35:04;;;;;;;5.38;2.70;;;18.10;99.90;;;;;;4990946;28;20022;-77
2023/08/13 03:37:30;;;;;;;4.10;2.53;;;18.10;99.90;;;;;;4990302;28;20033;-77
2023/08/13 03:39:56;;;;;;;11.23;3.80;;;18.00;99.90;;;;;;4990685;28;20025;-77
2023/08/13 03:42:21;;;;;;;5.45;3.00;;;18.00;99.90;;;;;;4990339;28;20487;-77
2023/08/13 03:44:47;;;;;;;4.18;2.50;;;17.90;99.90;;;;;;4990254;28;20126;-76
2023/08/13 03:47:13;;;;;;;4.65;2.75;;;17.90;99.90;;;;;;4991244;28;20150;-77
2023/08/13 03:49:38;;;;;;;5.43;2.80;;;17.90;99.90;;;;;;4992276;28;20506;-77
2023/08/13 03:52:04;;;;;;;5.07;3.45;;;17.90;99.90;;;;;;4990062;28;20073;-77
2023/08/13 03:54:30;;;;;;;3.45;2.88;;;18.00;99.90;;;;;;4990315;28;20062;-77
2023/08/13 03:56:56;;;;;;;5.80;3.33;;;18.00;99.90;;;;;;4973209;28;20073;-78
2023/08/13 03:59:22;;;;;;;3.13;2.67;;;18.10;99.90;;;;;;4975912;28;20051;-77
2023/08/13 04:01:47;;;;;;;3.83;2.38;;;18.10;99.90;;;;;;4974288;28;20247;-78
2023/08/13 04:04:13;;;;;;;3.15;2.25;;;18.20;99.90;;;;;;4980727;28;20097;-78
2023/08/13 04:06:39;;;;;;;2.10;1.90;;;18.20;99.90;;;;;;4971737;28;20023;-77
2023/08/13 04:09:05;;;;;;;4.63;2.58;;;18.10;99.90;;;;;;4973801;28;20065;-77
2023/08/13 04:11:31;;;;;;;2.70;2.50;;;18.10;99.90;;;;;;4977159;28;20053;-77
2023/08/13 04:13:56;;;;;;;9.45;3.00;;;18.00;99.90;;;;;;4979180;28;20038;-76
2023/08/13 04:16:22;;;;;;;2.47;2.28;;;18.00;99.90;;;;;;4980911;28;20215;-77
2023/08/13 04:18:50;;;;;;;4.10;2.38;;;18.00;99.90;;;;;;4980581;28;20270;-76
2023/08/13 04:21:16;;;;;;;6.93;2.88;;;17.90;99.90;;;;;;4978979;28;20114;-78
2023/08/13 04:23:41;;;;;;;2.20;2.08;;;17.90;99.90;;;;;;4977113;28;20027;-77
2023/08/13 04:26:07;;;;;;;3.38;2.83;;;17.90;99.90;;;;;;4973349;28;20018;-77
2023/08/13 04:28:33;;;;;;;2.92;2.60;;;17.80;99.90;;;;;;4970151;28;20023;-77
2023/08/13 04:30:59;;;;;;;2.45;2.20;;;17.80;99.90;;;;;;4970466;28;20487;-77
2023/08/13 04:33:24;;;;;;;2.38;2.17;;;17.80;99.90;;;;;;4970982;28;20034;-77
2023/08/13 04:35:54;;;;;;;2.80;2.30;;;17.80;99.90;;;;;;4972754;28;20471;-78
2023/08/13 04:38:20;;;;;;;4.07;2.05;;;17.80;99.90;;;;;;4953031;28;20030;-78
2023/08/13 04:40:47;;;;;;;2.42;2.15;;;17.80;99.90;;;;;;4972289;28;20026;-78
2023/08/13 04:43:14;;;;;;;4.13;1.80;;;17.90;99.90;;;;;;4971556;28;20037;-77
2023/08/13 04:45:40;;;;;;;1.88;1.75;;;17.90;99.90;;;;;;4973412;28;20168;-78
2023/08/13 04:48:06;;;;;;;4.30;2.50;;;17.90;99.90;;;;;;4976503;28;20287;-78
2023/08/13 04:50:32;;;;;;;2.25;1.98;;;18.00;99.90;;;;;;4978033;28;20455;-77
2023/08/13 04:52:58;;;;;;;4.85;2.28;;;18.00;99.90;;;;;;4979006;28;20033;-77
2023/08/13 04:55:24;;;;;;;3.80;2.85;;;18.00;99.90;;;;;;4979186;28;20039;-77
2023/08/13 04:57:49;;;;;;;6.03;2.30;;;18.10;99.90;;;;;;4975506;28;20027;-77
2023/08/13 05:00:15;;;;;;;6.03;2.85;;;18.10;99.90;;;;;;4973269;28;20491;-77
2023/08/13 05:02:41;;;;;;;4.30;2.30;;;18.10;99.90;;;;;;4973991;28;20027;-77
2023/08/13 05:05:07;;;;;;;2.47;2.28;;;18.20;99.90;;;;;;4977791;28;20478;-78
2023/08/13 05:07:33;;;;;;;3.47;2.10;;;18.20;99.90;;;;;;4973142;28;20165;-77
2023/08/13 05:09:58;;;;;;;4.80;2.28;;;18.30;99.90;;;;;;4978400;28;20094;-78
2023/08/13 05:12:24;;;;;;;1.95;1.70;;;18.50;99.90;;;;;;4972984;28;20566;-77
2023/08/13 05:14:49;;;;;;;4.07;2.10;;;18.60;99.90;;;;;;4974229;28;20034;-76
2023/08/13 05:17:19;;;;;;;4.13;1.88;;;18.60;99.90;;;;;;4973324;28;20527;-77
2023/08/13 05:19:46;;;;;;;5.18;2.40;;;18.70;99.90;;;;;;4974099;28;20247;-77
2023/08/13 05:22:11;;;;;;;1.50;1.40;;;18.80;99.90;;;;;;4956366;28;20038;-78
2023/08/13 05:24:37;;;;;;;4.68;2.55;;;18.90;99.90;;;;;;4974087;28;20483;-77
2023/08/13 05:27:03;;;;;;;5.38;2.45;;;19.00;99.90;;;;;;4977819;28;20023;-77
2023/08/13 05:29:29;;;;;;;4.82;2.15;;;19.20;99.90;;;;;;4975440;28;20039;-78
2023/08/13 05:31:54;;;;;;;3.08;2.13;;;19.20;99.90;;;;;;4973058;28;20030;-78
2023/08/13 05:34:20;;;;;;;4.43;1.88;;;19.30;99.90;;;;;;4972066;28;20558;-78
2023/08/13 05:36:46;;;;;;;4.88;2.30;;;19.40;99.90;;;;;;4974960;28;20065;-77
2023/08/13 05:39:11;;;;;;;4.80;1.80;;;19.50;99.90;;;;;;4973229;28;20129;-78
2023/08/13 05:41:37;;;;;;;7.60;2.38;;;19.60;99.90;;;;;;4955710;28;20435;-77
2023/08/13 05:44:03;;;;;;;8.55;2.13;;;19.70;99.90;;;;;;4955729;28;20030;-78
2023/08/13 05:46:29;;;;;;;7.68;1.80;;;19.80;99.90;;;;;;4975227;28;20027;-78
2023/08/13 05:48:54;;;;;;;3.72;1.80;;;19.80;99.90;;;;;;4955707;28;20439;-78
2023/08/13 05:51:20;;;;;;;2.90;1.30;;;19.80;99.90;;;;;;4955742;28;20034;-78
2023/08/13 05:53:46;;;;;;;3.72;2.38;;;19.90;99.90;;;;;;4973144;28;20068;-78
2023/08/13 05:56:12;;;;;;;3.42;2.10;;;20.00;99.90;;;;;;4976822;28;20106;-77
2023/08/13 05:58:37;;;;;;;4.03;2.08;;;20.20;99.90;;;;;;4973910;28;20400;-78
2023/08/13 06:01:03;;;;;;;2.53;1.77;;;20.30;99.90;;;;;;4972878;28;20081;-78
2023/08/13 06:03:29;;;;;;;1.92;1.75;;;20.40;99.90;;;;;;4973940;28;20483;-77
2023/08/13 06:05:55;;;;;;;1.65;1.50;;;20.60;99.90;;;;;;4973773;28;20247;-78
2023/08/13 06:08:21;;;;;;;2.85;2.47;;;20.70;99.90;;;;;;4955186;28;20026;-78
2023/08/13 06:10:46;;;;;;;2.58;2.00;;;20.80;99.90;;;;;;4973444;28;20377;-78
2023/08/13 06:13:12;;;;;;;5.93;1.60;;;20.90;99.90;;;;;;4955840;28;20077;-77
2023/08/13 06:15:38;;;;;;;4.18;1.55;;;21.00;99.90;;;;;;4955074;28;20104;-77
2023/08/13 06:18:04;;;;;;;1.33;1.20;;;21.10;99.90;;;;;;4972332;28;20349;-77
2023/08/13 06:20:31;;;;;;;2.45;1.55;;;21.50;99.90;;;;;;4972750;28;20171;-78
2023/08/13 06:22:56;;;;;;;3.03;1.58;;;21.30;99.90;;;;;;4955714;28;20023;-77
2023/08/13 06:25:22;;;;;;;1.67;1.55;;;21.30;99.90;;;;;;4972601;28;20030;-78
2023/08/13 06:27:48;;;;;;;4.18;1.83;;;21.40;99.90;;;;;;4972621;28;20027;-77
2023/08/13 06:30:13;;;;;;;6.28;2.50;;;21.40;99.90;;;;;;4972397;28;20117;-78
2023/08/13 06:32:39;;;;;;;2.70;2.30;;;21.50;99.90;;;;;;4954943;28;20050;-77
2023/08/13 06:35:05;;;;;;;5.05;2.15;;;21.90;99.90;;;;;;4972043;28;20109;-77
2023/08/13 06:37:31;;;;;;;8.15;2.42;;;22.10;99.90;;;;;;4954734;28;20062;-77
2023/08/13 06:39:56;;;;;;;7.72;2.88;;;22.30;99.90;;;;;;4972128;28;20058;-78
2023/08/13 06:42:23;;;;;;;4.10;1.98;;;22.20;99.90;;;;;;4972285;28;20479;-77
2023/08/13 06:44:49;;;;;;;4.32;2.33;;;22.20;99.90;;;;;;4972163;28;20322;-77
2023/08/13 06:47:14;;;;;;;2.60;1.80;;;22.10;99.90;;;;;;4971900;28;20547;-78
2023/08/13 06:49:40;;;;;;;4.75;2.63;;;22.30;99.90;;;;;;4975211;28;20050;-77
2023/08/13 06:52:06;;;;;;;2.47;1.88;;;22.40;99.90;;;;;;4974247;28;20031;-77
2023/08/13 06:54:32;;;;;;;4.57;2.00;;;22.60;99.90;;;;;;4954621;28;20038;-78
2023/08/13 06:56:59;;;;;;;11.07;3.42;;;22.50;99.90;;;;;;4971793;28;20472;-77
2023/08/13 06:59:24;;;;;;;2.63;1.90;;;22.50;99.90;;;;;;4974639;28;20455;-78
2023/08/13 07:01:50;;;;;;;4.38;1.85;;;22.70;99.90;;;;;;4971883;28;20640;-77
2023/08/13 07:04:16;;;;;;;5.00;2.42;;;22.80;99.90;;;;;;4972115;28;20034;-78
2023/08/13 07:06:42;;;;;;;4.47;1.95;;;23.30;99.90;;;;;;4955232;28;20116;-77
2023/08/13 07:09:08;;;;;;;7.70;3.42;;;24.20;99.90;;;;;;4960250;28;20141;-77
2023/08/13 07:11:34;;;;;;;3.65;1.92;;;25.60;99.90;;;;;;4979976;28;20030;-76
2023/08/13 07:14:03;;;;;;;4.88;1.70;;;26.00;99.90;;;;;;4975276;28;20018;-73
2023/08/13 07:16:29;;;;;;;4.95;1.63;;;26.40;99.90;;;;;;4978733;28;20048;-73
2023/08/13 07:18:54;;;;;;;4.95;2.20;;;26.30;99.90;;;;;;4982128;28;20015;-77
2023/08/13 07:21:20;;;;;;;1.88;1.75;;;26.50;99.90;;;;;;4979687;28;20030;-76
2023/08/13 07:23:46;;;;;;;3.47;1.85;;;26.50;99.90;;;;;;4999332;28;20351;-76
2023/08/13 07:26:11;;;;;;;5.22;1.95;;;25.70;99.90;;;;;;4974071;28;20299;-76
2023/08/13 07:28:40;;;;;;;3.28;1.98;;;25.80;99.90;;;;;;4990853;28;20042;-75
2023/08/13 07:31:06;;;;;;;2.47;1.52;;;25.80;99.90;;;;;;4999350;28;20018;-75
2023/08/13 07:33:32;;;;;;;5.05;2.28;;;25.70;99.90;;;;;;4998219;28;20026;-77
2023/08/13 07:36:03;;;;;;;2.72;2.22;;;25.60;99.90;;;;;;4982353;28;20036;-74
2023/08/13 07:38:29;;;;;;;2.47;2.10;;;25.30;99.90;;;;;;4999216;28;20045;-74
2023/08/13 07:40:56;;;;;;;3.72;1.80;;;24.90;99.90;;;;;;4987091;28;20058;-73
2023/08/13 07:43:23;;;;;;;3.97;2.35;;;24.80;99.90;;;;;;4978119;28;20198;-73
2023/08/13 07:45:50;;;;;;;5.25;2.53;;;24.70;99.90;;;;;;4980463;28;20069;-73
2023/08/13 07:48:16;;;;;;;7.07;3.65;;;25.10;99.90;;;;;;4989256;28;20032;-74
2023/08/13 07:50:42;;;;;;;3.47;2.80;;;25.30;99.90;;;;;;5000627;28;20022;-73
2023/08/13 07:53:07;;;;;;;3.80;2.50;;;25.60;99.90;;;;;;5000476;28;20317;-75
2023/08/13 07:55:34;;;;;;;4.72;2.53;;;25.50;99.90;;;;;;4998853;28;20318;-74
2023/08/13 07:57:59;;;;;;;3.85;2.30;;;25.80;99.90;;;;;;4997635;28;20026;-72
2023/08/13 08:00:26;;;;;;;5.30;1.90;;;26.40;99.90;;;;;;4992435;28;20058;-72
2023/08/13 08:02:53;;;;;;;1.88;1.67;;;26.50;99.90;;;;;;4996251;28;20026;-73
2023/08/13 08:05:19;;;;;;;5.32;1.95;;;25.90;99.90;;;;;;4995625;28;20094;-74
2023/08/13 08:07:45;;;;;;;3.72;2.03;;;26.40;99.90;;;;;;4991509;28;20029;-73
2023/08/13 08:10:11;;;;;;;2.60;1.88;;;27.00;99.90;;;;;;4993749;28;20036;-73
2023/08/13 08:12:37;;;;;;;1.92;1.33;;;27.50;99.90;;;;;;4988928;28;20097;-72
2023/08/13 08:15:05;;;;;;;5.28;1.83;;;27.50;99.90;;;;;;4988687;28;20026;-73
2023/08/13 08:17:31;;;;;;;4.28;2.33;;;27.50;99.90;;;;;;4995060;28;20033;-71
2023/08/13 08:19:56;;;;;;;2.22;1.80;;;27.10;99.90;;;;;;4991850;28;20026;-71
2023/08/13 08:22:22;;;;;;;2.25;2.05;;;27.60;99.90;;;;;;4997674;28;20326;-73
2023/08/13 08:24:48;;;;;;;2.78;2.08;;;28.20;99.90;;;;;;4993815;28;20188;-73
2023/08/13 08:27:13;;;;;;;5.10;2.08;;;28.80;99.90;;;;;;4975516;28;20290;-73
2023/08/13 08:29:39;;;;;;;1.70;1.60;;;29.10;99.90;;;;;;4993476;28;20125;-72
2023/08/13 08:32:04;;;;;;;3.72;2.00;;;29.40;99.10;;;;;;4992656;28;20596;-74
2023/08/13 08:34:30;;;;;;;2.63;1.73;;;29.50;98.30;;;;;;4990321;28;20038;-71
2023/08/13 08:36:56;;;;;;;2.45;1.50;;;29.30;97.10;;;;;;4992185;28;20314;-72
2023/08/13 08:39:22;;;;;;;3.85;1.88;;;29.30;97.20;;;;;;4995811;28;20254;-72
2023/08/13 08:41:48;;;;;;;7.15;3.08;;;29.70;96.60;;;;;;4999481;28;20319;-71
2023/08/13 08:44:22;;;;;;;3.25;1.60;;;30.10;96.30;;;;;;4990219;28;20049;-72
2023/08/13 08:46:49;;;;;;;2.00;1.48;;;30.70;94.60;;;;;;4986938;28;20029;-73
2023/08/13 08:49:16;;;;;;;3.35;2.03;;;31.20;92.10;;;;;;4970408;28;20026;-72
2023/08/13 08:51:42;;;;;;;3.92;1.90;;;30.90;91.60;;;;;;4975229;28;20038;-71
2023/08/13 08:54:08;;;;;;;3.80;1.63;;;30.80;91.20;;;;;;4974704;28;20823;-72
2023/08/13 08:56:34;;;;;;;1.73;1.63;;;30.30;91.60;;;;;;4983085;28;20097;-71
2023/08/13 08:58:59;;;;;;;2.35;1.83;;;30.50;91.10;;;;;;4979206;28;20053;-71
2023/08/13 09:01:25;;;;;;;3.30;1.38;;;31.10;90.20;;;;;;4982521;28;20037;-70
2023/08/13 09:03:51;;;;;;;2.08;1.45;;;30.40;89.60;;;;;;4980130;28;20049;-71
2023/08/13 09:06:17;;;;;;;2.08;1.13;;;30.60;89.80;;;;;;4976037;28;20026;-72
2023/08/13 09:08:42;;;;;;;4.10;2.20;;;30.50;89.80;;;;;;4979331;28;20069;-72
2023/08/13 09:11:09;;;;;;;2.22;1.60;;;30.00;90.70;;;;;;4972416;28;20039;-73
2023/08/13 09:13:34;;;;;;;3.33;1.25;;;29.60;91.00;;;;;;4971416;28;20070;-72
2023/08/13 09:16:00;;;;;;;3.35;1.30;;;29.60;91.30;;;;;;4971956;28;20471;-71
2023/08/13 09:18:26;;;;;;;1.60;1.20;;;29.70;90.20;;;;;;4993138;28;20018;-73
2023/08/13 09:20:51;;;;;;;2.78;2.03;;;29.80;91.00;;;;;;4999160;28;20046;-75
2023/08/13 09:23:22;;;;;;;1.83;1.40;;;29.70;90.20;;;;;;4999338;28;20078;-77
2023/08/13 09:25:55;;;;;;;4.45;1.75;;;29.80;90.80;;;;;;4999596;28;20026;-73
2023/08/13 09:28:21;;;;;;;3.25;1.20;;;29.80;90.90;;;;;;4998288;28;20097;-73
2023/08/13 09:30:47;;;;;;;1.95;1.27;;;29.50;90.40;;;;;;4983376;28;20031;-76
2023/08/13 09:33:17;;;;;;;1.45;1.30;;;29.00;91.60;;;;;;4958611;28;20114;-76
2023/08/13 09:35:44;;;;;;;2.50;1.70;;;29.00;91.90;;;;;;4975835;28;20046;-76
2023/08/13 09:38:10;;;;;;;2.45;1.60;;;28.80;91.60;;;;;;4974886;28;20037;-76
2023/08/13 09:40:37;;;;;;;1.70;1.58;;;28.90;91.70;;;;;;4977289;28;20034;-76
2023/08/13 09:43:06;;;;;;;3.58;1.50;;;28.80;91.10;;;;;;4982368;28;20023;-75
2023/08/13 09:45:33;;;;;;;1.83;1.67;;;28.50;92.10;;;;;;4978298;28;20035;-76
2023/08/13 09:48:04;;;;;;;3.25;1.67;;;27.70;93.50;;;;;;4975932;28;20030;-76
2023/08/13 09:50:41;;;;;;;3.08;1.90;;;27.40;94.80;;;;;;4980047;28;20034;-76
2023/08/13 09:53:14;;;;;;;2.85;1.98;;;27.10;95.90;;;;;;4976361;28;20044;-75
2023/08/13 09:55:45;;;;;;;2.50;1.90;;;27.20;96.20;;;;;;4980904;28;20117;-75
2023/08/13 09:58:14;;;;;;;3.20;1.98;;;27.20;96.30;;;;;;4987555;28;20050;-76
2023/08/13 10:00:39;;;;;;;4.45;1.63;;;27.20;96.80;;;;;;4989379;28;20049;-75
2023/08/13 10:03:06;;;;;;;3.67;1.75;;;27.60;97.20;;;;;;4983757;28;20436;-75
2023/08/13 10:05:33;;;;;;;2.45;2.03;;;28.00;96.20;;;;;;4976053;28;20023;-75
2023/08/13 10:07:59;;;;;;;2.20;1.92;;;28.10;95.00;;;;;;4978377;28;20046;-76
2023/08/13 10:10:26;;;;;;;1.55;1.45;;;28.10;95.20;;;;;;4959574;28;20042;-76
2023/08/13 10:12:52;;;;;;;3.33;1.98;;;28.30;94.40;;;;;;4982536;28;20026;-75
2023/08/13 10:15:20;;;;;;;3.88;2.00;;;28.20;93.60;;;;;;4982344;28;20023;-77
2023/08/13 10:17:46;;;;;;;1.88;1.67;;;28.30;93.10;;;;;;4996453;28;20073;-76
2023/08/13 10:20:12;;;;;;;3.20;1.95;;;27.90;93.50;;;;;;4999101;28;20159;-76
2023/08/13 10:22:39;;;;;;;1.80;1.67;;;28.20;94.80;;;;;;4998485;28;20057;-76
2023/08/13 10:25:07;;;;;;;2.90;1.75;;;28.70;93.30;;;;;;4999707;28;20018;-77
2023/08/13 10:27:37;;;;;;;3.28;1.98;;;29.10;92.40;;;;;;5002529;28;20034;-77
2023/08/13 10:30:06;;;;;;;2.33;1.83;;;29.10;92.30;;;;;;5000516;28;20042;-77
2023/08/13 10:32:36;;;;;;;4.78;2.28;;;28.90;92.40;;;;;;5000704;28;20024;-76
2023/08/13 10:35:39;;;;;;;1.83;1.73;;;28.90;92.70;;;;;;4975552;28;20186;-76
2023/08/13 10:38:07;;;;;;;4.22;1.80;;;29.10;92.90;;;;;;4997242;28;20073;-76
2023/08/13 10:40:33;;;;;;;1.95;1.80;;;29.50;92.90;;;;;;4995359;28;20218;-77
2023/08/13 10:42:59;;;;;;;2.42;1.80;;;29.90;93.20;;;;;;4998908;28;20023;-76
2023/08/13 10:45:35;;;;;;;2.50;2.30;;;29.90;91.50;;;;;;4999028;28;20040;-76
2023/08/13 10:48:08;;;;;;;2.97;1.88;;;29.50;91.90;;;;;;4979149;28;20311;-77
2023/08/13 10:50:43;;;;;;;2.10;1.90;;;29.00;93.00;;;;;;4971353;28;20030;-76
2023/08/13 10:53:13;;;;;;;2.28;1.80;;;28.80;93.00;;;;;;4975670;28;20058;-75
2023/08/13 10:55:46;;;;;;;2.30;1.83;;;28.60;92.20;;;;;;4972736;28;20038;-77
2023/08/13 10:58:34;;;;;;;1.70;1.60;;;29.10;91.80;;;;;;4972877;28;20077;-75
2023/08/13 11:01:09;;;;;;;4.70;1.60;;;30.00;91.40;;;;;;4972875;28;20675;-77
2023/08/13 11:03:41;;;;;;;1.80;1.70;;;30.40;91.10;;;;;;4984637;28;20095;-75
2023/08/13 11:06:07;;;;;;;1.92;1.83;;;30.30;90.20;;;;;;4996039;28;20029;-77
2023/08/13 11:08:33;;;;;;;4.22;1.90;;;30.10;90.50;;;;;;4992456;28;20034;-76
2023/08/13 11:11:00;;;;;;;1.75;1.55;;;29.90;90.40;;;;;;4999318;28;20084;-76
2023/08/13 11:13:25;;;;;;;2.92;1.98;;;30.20;90.50;;;;;;4999154;28;20107;-76
2023/08/13 11:15:53;;;;;;;4.15;1.83;;;30.10;90.30;;;;;;4982349;28;20018;-76
2023/08/13 11:18:20;;;;;;;2.45;1.73;;;29.70;90.90;;;;;;4986532;28;20061;-76
2023/08/13 11:20:47;;;;;;;2.42;2.20;;;30.40;91.50;;;;;;4980879;28;20058;-77
2023/08/13 11:23:17;;;;;;;2.25;1.83;;;31.10;90.90;;;;;;4963531;28;20022;-75
2023/08/13 11:25:49;;;;;;;2.90;1.85;;;30.50;90.00;;;;;;4982222;28;20393;-76
2023/08/13 11:28:21;;;;;;;2.35;2.00;;;30.70;89.90;;;;;;4999542;28;20018;-76
2023/08/13 11:30:47;;;;;;;5.88;1.95;;;31.10;89.70;;;;;;4999287;28;20041;-77
2023/08/13 11:33:13;;;;;;;2.40;2.08;;;30.70;90.20;;;;;;4999527;28;20041;-76
2023/08/13 11:35:39;;;;;;;6.03;2.45;;;30.60;90.00;;;;;;4968768;28;20070;-76
2023/08/13 11:38:06;;;;;;;3.67;2.17;;;30.50;90.50;;;;;;4962989;28;20014;-76
2023/08/13 11:40:32;;;;;;;2.35;2.00;;;30.60;90.20;;;;;;4979998;28;20029;-75
2023/08/13 11:42:59;;;;;;;4.50;2.50;;;30.30;89.80;;;;;;4978655;28;20037;-77
2023/08/13 11:45:27;;;;;;;4.38;2.50;;;30.30;90.60;;;;;;4978929;28;20053;-74
2023/08/13 11:48:07;;;;;;;5.32;2.60;;;30.70;90.50;;;;;;4974198;28;20596;-72
2023/08/13 11:50:33;;;;;;;5.28;2.40;;;29.80;90.40;;;;;;4979902;28;20960;-74
2023/08/13 11:53:10;;;;;;;4.25;2.35;;;30.20;90.60;;;;;;4998571;28;20097;-78
2023/08/13 11:55:38;;;;;;;2.72;2.20;;;30.70;89.10;;;;;;4997283;28;20109;-77
2023/08/13 11:58:04;;;;;;;4.87;2.40;;;30.50;89.80;;;;;;4979237;28;20029;-77
2023/08/13 12:00:31;;;;;;;2.50;2.30;;;30.50;90.20;;;;;;4976350;28;20052;-78
2023/08/13 12:02:58;;;;;;;5.63;2.70;;;30.60;90.10;;;;;;4961849;28;20082;-77
2023/08/13 12:05:26;;;;;;;3.13;2.53;;;30.90;90.30;;;;;;4992713;28;20104;-78
2023/08/13 12:07:53;;;;;;;2.45;2.00;;;32.00;88.40;;;;;;4980967;28;20035;-78
2023/08/13 12:10:18;;;;;;;3.42;2.45;;;31.80;87.10;;;;;;4965477;28;20374;-77
2023/08/13 12:12:44;;;;;;;4.75;1.83;;;31.70;87.40;;;;;;4979628;28;20030;-78
2023/08/13 12:15:10;;;;;;;3.78;2.50;;;31.80;86.10;;;;;;4984225;28;20275;-77
2023/08/13 12:17:35;;;;;;;2.42;2.22;;;32.50;84.50;;;;;;4991310;28;20026;-77
2023/08/13 12:20:01;;;;;;;20.38;2.97;;;32.90;82.10;;;;;;4989935;28;20022;-76
2023/08/13 12:22:26;;;;;;;2.55;2.20;;;32.60;81.40;;;;;;4998208;28;20041;-77
2023/08/13 12:24:52;;;;;;;3.53;2.00;;;33.40;81.60;;;;;;4993490;28;20033;-77
2023/08/13 12:27:18;;;;;;;2.97;2.25;;;33.80;81.00;;;;;;4978485;28;20349;-76
2023/08/13 12:29:43;;;;;;;4.20;2.47;;;33.80;79.10;;;;;;4997133;28;20052;-76
2023/08/13 12:32:09;;;;;;;1.92;1.83;;;33.40;80.90;;;;;;4995883;28;20115;-77
2023/08/13 12:34:34;;;;;;;3.38;1.80;;;32.60;80.30;;;;;;4993999;28;20618;-77
2023/08/13 12:37:00;;;;;;;7.50;2.05;;;33.30;80.70;;;;;;4975167;28;20382;-77
2023/08/13 12:39:25;;;;;;;4.10;1.73;;;33.90;78.80;;;;;;4966769;28;20030;-77
2023/08/13 12:41:51;;;;;;;2.53;2.33;;;33.10;79.10;;;;;;4981316;28;20440;-77
2023/08/13 12:44:17;;;;;;;3.92;1.83;;;33.20;78.60;;;;;;4950169;28;20057;-77